Time;durP1;ratioP1;P1;durP2;ratioP2;P2;SDS_P1;SDS_P2;PMS_P1;PMS_P2;Temp;Humidity;BMP_temperature;BMP_pressure;BME280_temperature;BME280_humidity;BME280_pressure;Samples;Min_cycle;Max_cycle;Signal;HPM_P1;HPM_P2
2021/12/07 00:00:51;;;;;;;;;3.00;3.00;;;;;7.07;69.87;100495.41;5077001;27;45225;-62
2021/12/07 00:03:16;;;;;;;;;4.50;4.50;;;;;7.07;69.82;100488.41;5058758;28;46716;-62
2021/12/07 00:05:41;;;;;;;;;2.00;2.00;;;;;7.06;70.12;100486.75;5076766;27;45398;-62
2021/12/07 00:08:07;;;;;;;;;9.00;4.00;;;;;7.06;70.26;100496.34;5058049;28;64446;-62
2021/12/07 00:10:32;;;;;;;;;5.75;3.00;;;;;7.06;70.19;100509.41;5076175;28;59142;-62
2021/12/07 00:12:58;;;;;;;;;5.00;3.75;;;;;7.06;70.11;100510.25;5075735;28;72478;-62
2021/12/07 00:15:24;;;;;;;;;5.00;3.00;;;;;7.06;70.21;100509.41;5076697;27;45536;-62
2021/12/07 00:17:50;;;;;;;;;5.50;3.50;;;;;7.04;70.18;100520.00;5075700;28;45413;-62
2021/12/07 00:20:17;;;;;;;;;4.00;4.00;;;;;7.05;70.30;100524.28;5076770;28;45334;-62
2021/12/07 00:22:44;;;;;;;;;5.00;2.25;;;;;7.05;70.22;100518.19;5076553;28;45487;-62
2021/12/07 00:25:09;;;;;;;;;4.00;2.50;;;;;7.04;70.26;100501.69;5075384;28;45268;-62
2021/12/07 00:27:35;;;;;;;;;10.00;3.75;;;;;7.03;70.39;100505.25;5076638;28;45158;-62
2021/12/07 00:30:00;;;;;;;;;3.00;2.50;;;;;7.04;70.36;100498.25;5057653;28;62649;-62
2021/12/07 00:32:31;;;;;;;;;3.75;2.00;;;;;7.04;70.26;100486.03;5075328;28;45280;-62
2021/12/07 00:35:20;;;;;;;;;3.50;3.00;;;;;7.02;70.08;100493.16;5058312;28;45864;-62
2021/12/07 00:37:48;;;;;;;;;2.75;2.00;;;;;7.01;70.22;100506.31;5076456;28;45448;-62
2021/12/07 00:40:15;;;;;;;;;4.00;3.00;;;;;7.00;70.20;100504.63;5058612;28;45305;-62
2021/12/07 00:42:40;;;;;;;;;5.00;3.25;;;;;6.99;70.22;100514.25;5077457;28;45432;-62
2021/12/07 00:45:06;;;;;;;;;2.50;2.00;;;;;6.98;70.05;100517.81;5078989;28;72789;-62
2021/12/07 00:47:32;;;;;;;;;3.75;2.00;;;;;6.96;70.15;100512.69;5061973;28;45425;-62
2021/12/07 00:49:57;;;;;;;;;4.25;2.00;;;;;6.96;69.99;100515.31;5079112;27;66471;-62
2021/12/07 00:52:23;;;;;;;;;4.75;2.75;;;;;6.95;70.02;100518.88;5079112;27;70227;-62
2021/12/07 00:54:48;;;;;;;;;3.00;2.00;;;;;6.93;70.06;100519.94;5078963;28;67125;-62
2021/12/07 00:57:13;;;;;;;;;2.50;2.00;;;;;6.91;70.14;100522.66;5060713;27;68321;-62
2021/12/07 00:59:39;;;;;;;;;11.25;2.00;;;;;6.92;70.25;100513.88;5079329;27;61276;-62
2021/12/07 01:02:04;;;;;;;;;7.50;2.00;;;;;6.91;70.30;100516.59;5077469;28;67822;-62
2021/12/07 01:04:30;;;;;;;;;4.75;2.00;;;;;6.92;70.10;100513.06;5079780;27;45352;-62
2021/12/07 01:09:30;;;;;;;;;4.25;1.25;;;;;6.94;70.28;100522.44;5078591;28;45251;-62
2021/12/07 01:25:40;;;;;;;;;3.25;2.00;;;;;7.01;69.80;100535.03;5078206;28;46088;-62
2021/12/07 01:28:51;;;;;;;;;6.00;2.00;;;;;7.03;69.57;100520.09;5079519;28;45386;-61
2021/12/07 01:36:33;;;;;;;;;4.50;2.00;;;;;7.05;69.47;100515.59;5079185;28;45260;-62
2021/12/07 01:57:54;;;;;;;;;1.50;1.00;;;;;6.95;68.71;100534.53;5078017;27;45309;-62
2021/12/07 02:00:21;;;;;;;;;4.75;1.50;;;;;6.92;68.78;100545.22;5078956;27;45406;-62
2021/12/07 02:02:46;;;;;;;;;3.00;1.00;;;;;6.90;68.60;100546.28;5078851;27;45447;-62
2021/12/07 02:05:12;;;;;;;;;3.75;1.00;;;;;6.89;68.43;100549.84;5078638;28;46254;-62
2021/12/07 02:07:37;;;;;;;;;2.50;2.00;;;;;6.87;68.43;100557.81;5060613;28;45490;-62
2021/12/07 02:10:08;;;;;;;;;3.00;2.00;;;;;6.84;68.35;100550.19;5078857;27;45363;-62
2021/12/07 02:12:45;;;;;;;;;2.75;2.75;;;;;6.80;68.49;100553.97;5078843;27;45468;-62
2021/12/07 02:15:29;;;;;;;;;10.00;9.00;;;;;6.77;68.39;100556.78;5046826;27;46352;-63
2021/12/07 02:17:54;;;;;;;;;3.50;2.00;;;;;6.75;68.57;100548.25;5078741;27;45373;-62
2021/12/07 02:20:20;;;;;;;;;19.00;16.00;;;;;6.72;68.41;100551.06;5078511;27;45302;-62
2021/12/07 02:22:46;;;;;;;;;18.75;15.50;;;;;6.69;68.66;100554.72;5078657;27;45505;-60
2021/12/07 02:25:12;;;;;;;;;12.75;10.00;;;;;6.65;68.62;100551.50;5060108;28;46444;-62
2021/12/07 02:27:38;;;;;;;;;13.25;7.00;;;;;6.60;68.77;100561.44;5078532;27;45329;-62
2021/12/07 02:30:04;;;;;;;;;5.00;3.00;;;;;6.55;68.69;100553.09;5060289;28;45385;-62
2021/12/07 02:32:30;;;;;;;;;6.75;3.00;;;;;6.53;68.77;100558.44;5078455;28;45186;-62
2021/12/07 02:34:59;;;;;;;;;2.00;2.00;;;;;6.51;68.87;100562.09;5076974;27;45369;-62
2021/12/07 02:37:26;;;;;;;;;4.50;2.50;;;;;6.47;68.73;100560.63;5078245;28;45975;-62
2021/12/07 02:39:52;;;;;;;;;2.00;1.00;;;;;6.46;68.94;100553.75;5060459;28;45437;-62
2021/12/07 02:42:17;;;;;;;;;4.00;1.00;;;;;6.42;68.78;100547.94;5077991;27;45450;-62
2021/12/07 02:44:42;;;;;;;;;1.25;1.00;;;;;6.41;68.84;100551.47;5076998;27;45421;-62
2021/12/07 02:47:08;;;;;;;;;1.75;1.00;;;;;6.37;68.88;100552.63;5077246;28;68409;-62
2021/12/07 02:49:33;;;;;;;;;0.00;0.00;;;;;6.33;68.85;100549.44;5078253;27;45252;-62
2021/12/07 02:51:59;;;;;;;;;3.25;2.00;;;;;6.30;68.87;100549.63;5077692;27;53053;-62
2021/12/07 02:54:24;;;;;;;;;2.00;1.75;;;;;6.26;69.15;100553.41;5077879;27;45459;-62
2021/12/07 02:56:51;;;;;;;;;0.50;0.50;;;;;6.24;69.05;100556.09;5077589;28;58938;-62
2021/12/07 02:59:17;;;;;;;;;1.00;1.00;;;;;6.23;69.19;100558.84;5078103;28;45360;-61
2021/12/07 03:01:48;;;;;;;;;0.75;0.75;;;;;6.20;69.14;100562.47;5076790;27;45170;-62
2021/12/07 03:04:21;;;;;;;;;1.50;0.25;;;;;6.17;69.19;100565.28;5059231;28;46740;-62
2021/12/07 03:28:19;;;;;;;;;1.00;1.00;;;;;5.93;69.66;100589.50;5077453;27;45508;-60
2021/12/07 03:30:44;;;;;;;;;0.75;0.75;;;;;5.89;69.71;100580.22;5076980;27;53379;-60
2021/12/07 03:33:09;;;;;;;;;1.25;1.00;;;;;5.86;69.74;100576.97;5077498;28;45434;-61
2021/12/07 03:35:35;;;;;;;;;1.75;0.75;;;;;5.83;69.97;100582.44;5075954;28;45478;-61
2021/12/07 03:38:01;;;;;;;;;3.75;1.00;;;;;5.81;69.80;100589.50;5077299;28;45387;-61
2021/12/07 03:40:26;;;;;;;;;3.00;1.00;;;;;5.78;69.90;100586.19;5059307;28;45385;-61
2021/12/07 03:42:51;;;;;;;;;2.00;1.00;;;;;5.77;70.00;100592.31;5076226;27;68115;-61
2021/12/07 03:45:17;;;;;;;;;3.75;2.50;;;;;5.76;70.03;100589.81;5076361;27;67727;-61
2021/12/07 03:47:42;;;;;;;;;1.75;1.75;;;;;5.76;69.98;100588.03;5058958;28;45249;-61
2021/12/07 03:50:08;;;;;;;;;4.00;2.00;;;;;5.73;69.89;100585.66;5075053;28;66981;-61
2021/12/07 03:52:33;;;;;;;;;3.75;2.25;;;;;5.72;69.67;100586.59;5076569;28;45573;-61
2021/12/07 03:54:59;;;;;;;;;2.00;2.00;;;;;5.72;70.08;100583.13;5076241;28;62525;-61
2021/12/07 03:57:24;;;;;;;;;1.00;1.00;;;;;5.72;70.24;100591.78;5057980;28;66948;-61
2021/12/07 03:59:49;;;;;;;;;1.00;1.00;;;;;5.72;70.31;100583.97;5076023;28;62449;-61
2021/12/07 04:02:15;;;;;;;;;6.00;1.50;;;;;5.73;70.47;100572.63;5058718;28;45323;-61
2021/12/07 04:04:40;;;;;;;;;4.00;2.00;;;;;5.75;70.58;100568.13;5076607;28;46370;-61
2021/12/07 04:07:06;;;;;;;;;4.75;3.00;;;;;5.76;70.79;100571.56;5076632;28;45340;-61
2021/12/07 04:09:32;;;;;;;;;1.00;1.00;;;;;5.79;70.80;100577.41;5058384;28;50962;-61
2021/12/07 04:11:57;;;;;;;;;2.50;2.00;;;;;5.83;70.75;100575.41;5075658;28;45632;-61
2021/12/07 04:14:23;;;;;;;;;2.75;1.75;;;;;5.86;70.85;100584.78;5076735;28;46384;-61
2021/12/07 04:16:48;;;;;;;;;3.00;2.00;;;;;5.86;71.02;100592.63;5074887;27;73288;-61
2021/12/07 04:19:14;;;;;;;;;4.50;1.75;;;;;5.87;70.95;100599.50;5075530;28;45643;-61
2021/12/07 04:21:39;;;;;;;;;4.50;2.00;;;;;5.87;70.99;100600.34;5076276;28;54232;-61
2021/12/07 04:24:05;;;;;;;;;3.00;2.00;;;;;5.88;70.97;100595.94;5076479;27;47251;-61
2021/12/07 04:26:31;;;;;;;;;3.25;2.00;;;;;5.91;71.03;100598.34;5058588;28;45340;-61
2021/12/07 04:28:57;;;;;;;;;11.25;7.25;;;;;5.93;70.94;100601.69;5076641;28;45411;-61
2021/12/07 04:31:22;;;;;;;;;7.50;3.75;;;;;5.94;70.96;100599.00;5076582;27;45549;-61
2021/12/07 04:33:48;;;;;;;;;3.25;3.00;;;;;5.95;70.78;100597.22;5075614;28;68158;-61
2021/12/07 04:36:13;;;;;;;;;4.00;2.00;;;;;5.96;71.00;100588.44;5075538;28;70520;-61
2021/12/07 04:38:39;;;;;;;;;4.25;2.00;;;;;5.97;70.66;100589.31;5041780;28;45451;-61
2021/12/07 04:41:05;;;;;;;;;7.25;1.00;;;;;5.97;70.66;100578.88;5058437;27;45505;-61
2021/12/07 04:43:30;;;;;;;;;4.25;2.00;;;;;5.97;70.75;100592.72;5058005;28;46128;-61
2021/12/07 04:48:50;;;;;;;;;4.00;2.00;;;;;5.94;70.80;100591.19;5076500;28;45373;-61
2021/12/07 04:59:23;;;;;;;;;2.75;2.00;;;;;5.91;70.27;100588.78;5076330;27;45493;-61
2021/12/07 05:01:48;;;;;;;;;3.00;2.00;;;;;5.89;70.23;100595.03;5076347;27;45543;-60
2021/12/07 05:04:20;;;;;;;;;2.25;2.25;;;;;5.88;70.09;100585.53;5076103;28;49882;-60
2021/12/07 05:06:51;;;;;;;;;2.00;1.00;;;;;5.85;70.08;100591.78;5059016;28;45998;-60
2021/12/07 05:09:37;;;;;;;;;2.25;2.25;;;;;5.80;70.12;100578.22;5075565;28;45253;-60
2021/12/07 05:12:21;;;;;;;;;3.00;2.00;;;;;5.75;70.14;100575.94;5061280;28;45394;-60
2021/12/07 05:14:46;;;;;;;;;5.50;1.50;;;;;5.72;70.15;100577.91;5075903;28;45659;-60
2021/12/07 05:38:36;;;;;;;;;4.00;2.00;;;;;5.48;70.36;100584.66;5079088;27;45865;-60
2021/12/07 05:41:01;;;;;;;;;2.00;2.00;;;;;5.44;70.48;100588.41;5079423;27;45351;-61
2021/12/07 05:43:26;;;;;;;;;3.00;2.00;;;;;5.43;70.45;100591.94;5078906;27;45349;-60
2021/12/07 05:45:52;;;;;;;;;3.00;3.00;;;;;5.41;70.80;100593.81;5078069;28;74657;-61
2021/12/07 05:48:17;;;;;;;;;2.75;1.75;;;;;5.39;70.62;100595.69;5079018;28;45366;-60
2021/12/07 05:50:43;;;;;;;;;6.50;3.00;;;;;5.40;70.67;100597.38;5079127;27;45312;-60
2021/12/07 05:53:09;;;;;;;;;7.75;3.00;;;;;5.38;70.80;100591.41;5061003;28;45578;-60
2021/12/07 05:55:35;;;;;;;;;7.00;4.00;;;;;5.38;70.83;100588.81;5060585;28;50496;-60
2021/12/07 05:58:00;;;;;;;;;4.00;4.00;;;;;5.36;70.90;100585.47;5078889;27;45445;-61
2021/12/07 06:00:27;;;;;;;;;4.25;3.75;;;;;5.36;71.09;100590.69;5078294;28;63520;-60
2021/12/07 06:02:54;;;;;;;;;7.25;5.00;;;;;5.38;71.01;100591.41;5059914;28;45389;-60
2021/12/07 06:05:20;;;;;;;;;4.00;4.00;;;;;5.36;71.01;100590.69;5078675;28;45535;-60
2021/12/07 06:07:46;;;;;;;;;4.25;4.25;;;;;5.35;71.06;100587.25;5060345;28;45863;-60
2021/12/07 06:10:11;;;;;;;;;8.50;4.00;;;;;5.36;71.19;100601.09;5077869;27;61912;-60
2021/12/07 06:12:36;;;;;;;;;9.75;5.50;;;;;5.34;71.27;100600.38;5078417;27;48473;-60
2021/12/07 06:15:02;;;;;;;;;9.75;5.25;;;;;5.34;71.29;100602.97;5077636;27;65745;-60
2021/12/07 06:17:28;;;;;;;;;9.00;3.75;;;;;5.34;71.21;100600.38;5078377;27;45398;-60
2021/12/07 06:19:53;;;;;;;;;11.00;7.00;;;;;5.32;71.17;100594.41;5078439;27;45345;-60
2021/12/07 06:22:18;;;;;;;;;8.00;5.00;;;;;5.29;71.25;100592.03;5077606;28;61829;-60
2021/12/07 06:24:44;;;;;;;;;5.25;4.75;;;;;5.31;71.25;100595.34;5077399;28;72250;-60
2021/12/07 06:27:09;;;;;;;;;9.00;9.00;;;;;5.29;71.54;100590.25;5076779;28;45280;-60
2021/12/07 06:29:34;;;;;;;;;13.50;9.25;;;;;5.27;71.56;100578.28;5077422;28;57038;-60
2021/12/07 06:32:00;;;;;;;;;7.75;7.75;;;;;5.27;71.66;100573.06;5077734;28;53647;-61
2021/12/07 06:34:25;;;;;;;;;16.50;9.00;;;;;5.28;71.70;100567.75;5076057;28;63672;-61
2021/12/07 06:36:51;;;;;;;;;15.50;10.00;;;;;5.28;71.72;100559.13;5077940;28;45219;-60
2021/12/07 06:39:18;;;;;;;;;13.00;10.50;;;;;5.26;71.70;100553.16;5078031;28;45209;-60
2021/12/07 06:41:43;;;;;;;;;17.00;8.75;;;;;5.27;71.68;100552.22;5075864;28;45574;-60
2021/12/07 06:44:09;;;;;;;;;14.00;10.50;;;;;5.25;71.77;100544.50;5077838;28;46297;-60
2021/12/07 06:46:34;;;;;;;;;12.75;12.25;;;;;5.25;71.70;100552.31;5077859;28;45532;-60
2021/12/07 06:49:00;;;;;;;;;19.75;13.00;;;;;5.24;72.10;100537.63;5078117;28;45441;-60
2021/12/07 06:51:25;;;;;;;;;18.50;13.25;;;;;5.25;71.85;100539.28;5077988;28;45580;-60
2021/12/07 06:53:50;;;;;;;;;15.50;12.25;;;;;5.25;71.84;100539.28;5042116;27;47979;-60
2021/12/07 06:56:16;;;;;;;;;21.00;19.75;;;;;5.25;71.67;100547.09;5076998;28;66128;-60
2021/12/07 06:58:41;;;;;;;;;18.50;14.25;;;;;5.25;71.62;100543.69;5059031;28;59344;-60
2021/12/07 07:01:10;;;;;;;;;18.00;15.25;;;;;5.23;72.09;100532.53;5077047;28;62018;-60
2021/12/07 07:03:36;;;;;;;;;16.00;15.50;;;;;5.22;72.14;100541.28;5059821;28;45526;-60
2021/12/07 07:06:01;;;;;;;;;20.00;16.00;;;;;5.22;72.08;100530.84;5077661;27;45284;-60
2021/12/07 07:08:27;;;;;;;;;21.25;15.25;;;;;5.20;72.13;100529.19;5077045;27;57404;-60
2021/12/07 07:10:52;;;;;;;;;30.50;20.50;;;;;5.19;72.22;100517.09;5077718;27;45249;-61
2021/12/07 07:13:17;;;;;;;;;24.25;19.25;;;;;5.18;72.19;100515.44;5058857;28;57973;-60
2021/12/07 07:15:43;;;;;;;;;22.75;19.75;;;;;5.19;72.34;100506.69;5076707;28;63833;-60
2021/12/07 07:18:08;;;;;;;;;16.75;14.75;;;;;5.18;72.26;100515.44;5076513;27;45537;-60
2021/12/07 07:20:34;;;;;;;;;24.00;17.00;;;;;5.16;72.57;100512.09;5077451;27;45231;-60
2021/12/07 07:22:59;;;;;;;;;28.50;23.75;;;;;5.15;72.64;100515.63;5077292;27;45651;-60
2021/12/07 07:25:24;;;;;;;;;20.50;17.50;;;;;5.15;72.41;100510.41;5075600;28;52583;-60
2021/12/07 07:27:50;;;;;;;;;31.00;21.25;;;;;5.12;72.54;100505.41;5074541;27;61726;-60
2021/12/07 07:30:16;;;;;;;;;24.00;20.75;;;;;5.13;72.66;100493.22;5059249;28;45574;-60
2021/12/07 07:32:42;;;;;;;;;26.00;21.50;;;;;5.10;72.64;100489.06;5077108;27;45338;-60
2021/12/07 07:35:08;;;;;;;;;26.75;24.25;;;;;5.09;72.66;100495.19;5059131;27;45273;-60
2021/12/07 07:37:33;;;;;;;;;24.75;24.50;;;;;5.07;72.64;100491.84;5076990;27;45484;-60
2021/12/07 07:39:58;;;;;;;;;28.50;23.75;;;;;5.02;73.09;100489.56;5059029;27;45483;-60
2021/12/07 07:42:24;;;;;;;;;19.00;19.00;;;;;5.00;73.03;100480.19;5075651;28;74353;-61
2021/12/07 07:44:49;;;;;;;;;24.50;22.50;;;;;4.98;73.04;100461.22;5076284;28;61839;-61
2021/12/07 07:47:14;;;;;;;;;32.50;23.00;;;;;4.94;73.39;100462.34;5076272;27;63252;-60
2021/12/07 07:49:40;;;;;;;;;23.75;20.75;;;;;4.94;73.30;100459.75;5076413;27;59574;-60
2021/12/07 07:52:05;;;;;;;;;28.50;22.00;;;;;4.90;73.35;100456.53;5075949;28;46068;-60
2021/12/07 07:54:31;;;;;;;;;21.75;19.00;;;;;4.88;73.62;100463.59;5076839;27;45365;-60
2021/12/07 07:56:56;;;;;;;;;22.00;14.75;;;;;4.86;73.59;100458.47;5076973;28;45266;-60
2021/12/07 07:59:22;;;;;;;;;29.75;21.25;;;;;4.83;73.54;100455.25;5076083;27;66681;-60
2021/12/07 08:01:47;;;;;;;;;21.00;16.50;;;;;4.82;73.73;100457.00;5075801;28;67268;-60
2021/12/07 08:04:12;;;;;;;;;24.50;20.00;;;;;4.81;73.71;100444.09;5075908;28;67924;-60
2021/12/07 08:06:38;;;;;;;;;24.25;22.00;;;;;4.81;73.92;100431.91;5075843;28;67914;-60
2021/12/07 08:09:05;;;;;;;;;27.75;22.75;;;;;4.82;74.07;100425.78;5075798;27;62090;-61
2021/12/07 08:11:31;;;;;;;;;32.50;23.50;;;;;4.85;74.13;100429.97;5076669;28;45426;-60
2021/12/07 08:13:56;;;;;;;;;32.50;23.50;;;;;4.86;74.11;100431.63;5076614;28;45311;-60
2021/12/07 08:16:22;;;;;;;;;28.25;21.50;;;;;4.88;74.08;100435.78;5074662;28;62031;-60
2021/12/07 08:18:48;;;;;;;;;27.00;24.00;;;;;4.89;73.89;100434.84;5076304;28;49983;-61
2021/12/07 08:21:14;;;;;;;;;26.00;21.75;;;;;4.90;74.13;100428.69;5076487;28;45352;-60
2021/12/07 08:23:39;;;;;;;;;22.50;20.00;;;;;4.92;74.07;100435.56;5076488;27;45940;-60
2021/12/07 08:26:08;;;;;;;;;28.50;20.00;;;;;4.92;73.90;100419.97;5075412;27;45427;-61
2021/12/07 08:28:33;;;;;;;;;28.00;23.50;;;;;4.88;73.84;100417.56;5075544;28;45447;-62
2021/12/07 08:30:59;;;;;;;;;25.00;16.50;;;;;4.90;74.26;100407.06;5076191;28;46327;-62
2021/12/07 08:33:24;;;;;;;;;24.00;18.00;;;;;4.88;74.14;100404.53;5075844;28;64517;-62
2021/12/07 08:35:49;;;;;;;;;26.00;19.75;;;;;4.89;74.28;100397.56;5075199;27;45364;-62
2021/12/07 08:38:15;;;;;;;;;25.00;19.25;;;;;4.87;74.06;100397.66;5058385;28;45490;-61
2021/12/07 08:40:41;;;;;;;;;24.00;17.25;;;;;4.85;74.15;100388.31;5075617;27;66793;-62
2021/12/07 08:43:09;;;;;;;;;21.50;14.00;;;;;4.81;74.18;100386.84;5057979;28;45857;-61
2021/12/07 08:45:34;;;;;;;;;19.00;14.50;;;;;4.81;74.46;100371.22;5076077;28;45290;-61
2021/12/07 08:48:00;;;;;;;;;18.50;16.75;;;;;4.80;74.25;100375.56;5075721;27;58636;-61
2021/12/07 08:50:27;;;;;;;;;19.75;16.75;;;;;4.81;74.41;100381.63;5057958;28;46073;-61
2021/12/07 08:52:53;;;;;;;;;21.75;15.25;;;;;4.79;74.65;100376.50;5074732;28;45769;-61
2021/12/07 09:00:47;;;;;;;;;15.25;13.00;;;;;4.73;74.82;100380.38;5075845;28;45264;-62
2021/12/07 09:03:12;;;;;;;;;15.25;13.00;;;;;4.72;75.04;100401.31;5076372;28;50991;-61
2021/12/07 09:05:38;;;;;;;;;17.50;14.50;;;;;4.71;74.97;100399.63;5079710;27;45188;-61
2021/12/07 09:08:03;;;;;;;;;13.50;12.00;;;;;4.72;75.05;100393.50;5080212;27;45586;-61
2021/12/07 09:10:29;;;;;;;;;18.25;12.75;;;;;4.72;75.20;100372.69;5060363;27;46487;-62
2021/12/07 09:12:54;;;;;;;;;19.25;14.00;;;;;4.73;75.35;100340.50;5077493;27;71520;-61
2021/12/07 09:15:19;;;;;;;;;18.25;12.00;;;;;4.72;75.26;100310.22;5069070;27;54597;-61
2021/12/07 09:17:45;;;;;;;;;16.50;13.25;;;;;4.70;75.35;100323.31;5067517;27;70761;-61
2021/12/07 09:20:15;;;;;;;;;19.00;15.00;;;;;4.68;75.67;100325.19;5059667;27;47790;-61
2021/12/07 09:22:40;;;;;;;;;15.25;12.25;;;;;4.67;75.51;100304.47;5077680;27;45383;-61
2021/12/07 09:25:06;;;;;;;;;22.00;15.50;;;;;4.66;75.73;100297.59;5076584;27;45388;-61
2021/12/07 09:27:31;;;;;;;;;11.00;11.00;;;;;4.63;76.02;100287.41;5073591;27;45563;-61
2021/12/07 09:29:57;;;;;;;;;15.25;11.00;;;;;4.60;76.20;100285.81;5068881;27;75432;-61
2021/12/07 09:32:22;;;;;;;;;8.75;7.25;;;;;4.58;76.17;100266.88;5076094;27;64047;-61
2021/12/07 09:34:48;;;;;;;;;18.00;13.75;;;;;4.58;76.45;100278.13;5076909;27;60994;-61
2021/12/07 09:37:13;;;;;;;;;18.25;17.75;;;;;4.62;76.57;100262.31;5071046;27;45612;-61
2021/12/07 09:39:39;;;;;;;;;17.25;15.25;;;;;4.66;76.58;100263.78;5084846;27;46090;-62
2021/12/07 09:42:06;;;;;;;;;11.25;9.00;;;;;4.67;76.65;100261.06;5070602;28;45611;-61
2021/12/07 09:44:31;;;;;;;;;18.25;13.75;;;;;4.68;76.68;100256.69;5041667;28;64459;-61
2021/12/07 09:46:56;;;;;;;;;15.75;14.00;;;;;4.68;76.66;100249.72;5054945;28;62895;-61
2021/12/07 09:49:22;;;;;;;;;19.25;13.50;;;;;4.69;76.91;100271.38;5055222;28;64476;-61
2021/12/07 09:51:47;;;;;;;;;15.75;13.25;;;;;4.69;77.08;100263.56;5055298;28;51519;-61
2021/12/07 09:54:12;;;;;;;;;20.25;14.00;;;;;4.69;77.14;100272.19;5037332;28;69014;-61
2021/12/07 09:56:38;;;;;;;;;13.75;12.00;;;;;4.70;77.25;100268.66;5049019;28;57631;-62
2021/12/07 09:59:04;;;;;;;;;17.75;13.50;;;;;4.74;77.12;100271.91;5059254;28;45439;-61
2021/12/07 10:01:29;;;;;;;;;15.50;12.50;;;;;4.77;76.92;100274.25;5038877;28;47417;-61
2021/12/07 10:03:55;;;;;;;;;10.25;8.25;;;;;4.81;76.92;100278.31;5041301;28;65405;-61
2021/12/07 10:06:20;;;;;;;;;16.25;11.25;;;;;4.85;76.67;100285.00;5071784;28;64279;-60
2021/12/07 10:08:46;;;;;;;;;20.25;13.50;;;;;4.88;76.63;100273.53;5066042;28;46464;-61
2021/12/07 10:11:12;;;;;;;;;12.25;11.25;;;;;4.88;76.64;100261.34;5039016;28;45518;-61
2021/12/07 10:13:41;;;;;;;;;14.50;12.50;;;;;4.90;76.51;100250.84;5056910;28;45372;-61
2021/12/07 10:16:07;;;;;;;;;14.50;12.50;;;;;4.92;76.66;100253.31;5055501;28;45565;-61
2021/12/07 10:18:36;;;;;;;;;16.00;13.00;;;;;4.91;76.69;100249.91;5060077;28;45422;-61
2021/12/07 10:21:04;;;;;;;;;15.50;12.00;;;;;4.94;76.74;100252.31;5056322;28;46077;-61
2021/12/07 10:23:35;;;;;;;;;12.75;12.25;;;;;4.97;76.71;100256.44;5039012;28;45622;-61
2021/12/07 10:26:00;;;;;;;;;12.50;12.00;;;;;4.99;76.76;100245.00;5058170;28;45390;-61
2021/12/07 10:28:49;;;;;;;;;17.33;11.67;;;;;5.02;76.72;100238.72;5058753;28;45974;-61
2021/12/07 10:31:21;;;;;;;;;13.25;9.75;;;;;5.05;76.62;100220.28;5050147;28;45499;-61
2021/12/07 10:33:59;;;;;;;;;16.00;12.50;;;;;5.08;76.46;100209.66;5064744;28;45540;-61
2021/12/07 10:36:29;;;;;;;;;13.25;11.25;;;;;5.12;76.60;100190.28;5062832;28;45356;-61
2021/12/07 10:39:10;;;;;;;;;15.25;10.25;;;;;5.15;76.53;100181.41;5067522;28;50938;-61
2021/12/07 10:41:44;;;;;;;;;13.00;11.75;;;;;5.18;76.87;100175.97;5055652;28;46239;-61
2021/12/07 10:44:12;;;;;;;;;15.25;13.00;;;;;5.20;76.68;100159.31;5056390;28;45440;-60
2021/12/07 10:46:41;;;;;;;;;20.50;13.50;;;;;5.22;76.84;100145.34;5060210;28;45431;-60
2021/12/07 10:49:15;;;;;;;;;13.25;12.25;;;;;5.24;76.86;100143.47;5057398;28;46459;-60
2021/12/07 10:51:42;;;;;;;;;17.00;13.00;;;;;5.24;76.77;100136.47;5057047;28;45372;-60
2021/12/07 10:54:07;;;;;;;;;14.50;13.25;;;;;5.30;76.79;100127.38;5061042;28;45517;-60
2021/12/07 10:56:35;;;;;;;;;14.00;12.50;;;;;5.34;76.93;100123.59;5041628;28;45471;-60
2021/12/07 10:59:07;;;;;;;;;5.25;2.25;;;;;5.37;76.63;100112.94;5056271;28;46194;-60
2021/12/07 11:01:40;;;;;;;;;17.00;13.00;;;;;5.42;76.70;100086.56;5055504;28;45535;-60
2021/12/07 11:04:27;;;;;;;;;9.25;9.25;;;;;5.44;76.46;100075.06;5054710;28;46009;-60
2021/12/07 11:07:08;;;;;;;;;13.75;12.00;;;;;5.47;76.63;100081.84;5056603;28;45628;-60
2021/12/07 11:09:43;;;;;;;;;12.25;9.50;;;;;5.49;76.40;100086.00;5055655;28;45571;-61
2021/12/07 11:12:10;;;;;;;;;11.50;9.00;;;;;5.52;76.73;100068.47;5053210;28;45499;-63
2021/12/07 11:14:40;;;;;;;;;16.25;11.75;;;;;5.55;76.73;100055.19;5053884;28;45561;-61
2021/12/07 11:17:09;;;;;;;;;11.25;11.25;;;;;5.58;76.44;100047.16;5054771;28;45525;-62
2021/12/07 11:19:35;;;;;;;;;14.50;11.00;;;;;5.62;76.34;100044.19;5042760;28;46224;-62
2021/12/07 11:22:01;;;;;;;;;13.75;11.75;;;;;5.66;76.38;100026.56;5054134;28;45470;-62
2021/12/07 11:24:37;;;;;;;;;16.75;10.00;;;;;5.69;76.52;100013.28;5052620;28;49860;-61
2021/12/07 11:30:12;;;;;;;;;14.00;9.25;;;;;5.79;76.33;99992.56;5058277;28;45496;-62
2021/12/07 11:32:42;;;;;;;;;22.00;20.50;;;;;5.81;76.17;99977.63;5059630;28;45805;-62
2021/12/07 11:35:20;;;;;;;;;14.00;10.50;;;;;5.85;76.12;99959.94;5061391;28;45400;-62
2021/12/07 11:37:46;;;;;;;;;12.25;10.00;;;;;5.88;76.04;99955.34;5061683;28;45450;-62
2021/12/07 11:40:13;;;;;;;;;14.00;10.00;;;;;5.90;76.14;99952.59;5057011;28;45385;-62
2021/12/07 11:42:41;;;;;;;;;23.00;13.75;;;;;5.94;75.97;99941.81;5056634;28;45370;-62
2021/12/07 11:45:23;;;;;;;;;13.00;9.75;;;;;5.98;76.07;99929.38;5054385;28;45446;-62
2021/12/07 11:47:50;;;;;;;;;10.50;8.25;;;;;5.99;75.74;99923.19;5069358;28;45503;-61
2021/12/07 11:50:35;;;;;;;;;10.50;7.50;;;;;6.03;75.63;99916.00;5054134;28;45387;-61
2021/12/07 11:53:09;;;;;;;;;8.75;7.00;;;;;6.04;75.74;99902.84;5054685;28;45940;-62
2021/12/07 11:55:36;;;;;;;;;8.00;8.00;;;;;6.07;75.46;99902.59;5054811;28;45311;-60
2021/12/07 11:58:02;;;;;;;;;11.00;8.00;;;;;6.12;75.31;99893.56;5054240;28;45596;-60
2021/12/07 12:00:35;;;;;;;;;9.50;9.50;;;;;6.14;75.35;99891.66;5062530;28;45554;-62
2021/12/07 12:03:06;;;;;;;;;8.50;7.00;;;;;6.17;75.13;99884.41;5057532;28;45517;-60
2021/12/07 12:05:32;;;;;;;;;8.25;8.00;;;;;6.19;75.22;99873.88;5059509;28;45497;-62
2021/12/07 12:07:57;;;;;;;;;13.50;8.50;;;;;6.22;75.27;99869.22;5060208;27;45564;-62
2021/12/07 12:10:23;;;;;;;;;6.75;5.25;;;;;6.25;75.14;99860.34;5053518;28;46062;-62
2021/12/07 12:13:13;;;;;;;;;9.75;4.75;;;;;6.28;74.93;99852.25;5064565;28;59096;-62
2021/12/07 12:15:52;;;;;;;;;10.00;7.25;;;;;6.30;74.89;99850.34;5062883;28;45478;-62
2021/12/07 12:18:32;;;;;;;;;6.75;6.25;;;;;6.33;74.71;99831.84;5062799;28;45459;-60
2021/12/07 12:21:09;;;;;;;;;5.25;5.00;;;;;6.35;74.76;99816.88;5070237;28;46483;-62
2021/12/07 12:24:06;;;;;;;;;8.50;7.00;;;;;6.39;74.67;99815.66;5057723;28;45884;-61
2021/12/07 12:26:34;;;;;;;;;7.75;6.50;;;;;6.40;74.70;99813.88;5062023;28;45410;-62
2021/12/07 12:28:59;;;;;;;;;7.25;5.00;;;;;6.43;74.52;99803.19;5057170;28;45501;-62
2021/12/07 12:31:45;;;;;;;;;9.00;7.25;;;;;6.46;74.36;99796.88;5069232;28;48250;-62
2021/12/07 12:34:21;;;;;;;;;12.25;8.50;;;;;6.50;74.57;99782.63;5069489;28;45509;-62
2021/12/07 12:36:54;;;;;;;;;8.25;6.00;;;;;6.55;74.31;99769.19;5070403;27;45492;-62
2021/12/07 12:39:19;;;;;;;;;8.25;6.50;;;;;6.59;74.31;99760.16;5053327;28;45322;-62
2021/12/07 12:41:45;;;;;;;;;9.75;7.00;;;;;6.63;74.17;99762.38;5052254;28;46309;-61
2021/12/07 12:44:13;;;;;;;;;8.00;5.00;;;;;6.63;73.94;99754.53;5068840;27;59024;-62
2021/12/07 12:46:41;;;;;;;;;8.75;5.25;;;;;6.66;74.02;99759.50;5048075;27;45518;-62
2021/12/07 12:49:10;;;;;;;;;7.00;4.00;;;;;6.67;73.98;99742.03;5074407;27;45543;-62
2021/12/07 12:52:05;;;;;;;;;7.00;5.00;;;;;6.70;73.96;99714.88;5073815;27;45472;-62
2021/12/07 12:54:44;;;;;;;;;10.00;7.00;;;;;6.74;73.99;99692.75;5068228;27;45553;-62
2021/12/07 12:57:15;;;;;;;;;11.75;9.00;;;;;6.77;74.03;99677.66;5079333;27;45582;-62
2021/12/07 12:59:41;;;;;;;;;7.00;6.25;;;;;6.83;73.90;99668.47;5079455;27;45483;-62
2021/12/07 13:02:07;;;;;;;;;13.00;7.50;;;;;6.86;73.75;99673.44;5062258;27;46481;-62
2021/12/07 13:04:34;;;;;;;;;16.00;10.00;;;;;6.89;73.70;99646.22;5052694;27;45492;-62
2021/12/07 13:09:48;;;;;;;;;12.75;10.25;;;;;6.96;73.40;99629.84;5063953;27;45420;-62
2021/12/07 13:12:27;;;;;;;;;14.25;11.00;;;;;6.96;73.45;99622.03;5056712;28;45420;-62
2021/12/07 13:15:00;;;;;;;;;10.25;8.00;;;;;7.01;73.00;99618.19;5072629;27;45546;-62